ADDS METAR Data INFO
IDs: Format: Raw Decoded Include TAF

Data at: 0550 UTC 11 Dec 2017

KEKS 110535Z AUTO 14005KT 10SM FEW042 M03/M10 A3056 RMK AO2
KEKS 110515Z AUTO 14005KT 10SM BKN043 M05/M10 A3056 RMK AO2
KEKS 110455Z AUTO 20007KT 10SM OVC045 M04/M10 A3055 RMK AO2
KEKS 110435Z AUTO 16004KT 10SM OVC047 M02/M10 A3055 RMK AO2
KEKS 110415Z AUTO 14008KT 10SM OVC047 M02/M09 A3055 RMK AO2
KEKS 110355Z AUTO 14006KT 10SM BKN047 M01/M11 A3055 RMK AO2
KEKS 110335Z AUTO 00000KT 10SM BKN048 M02/M10 A3055 RMK AO2
KEKS 110315Z AUTO 36007KT 10SM OVC048 M03/M10 A3053 RMK AO2
KEKS 110255Z AUTO 36007KT 10SM OVC049 M02/M10 A3053 RMK AO2
KEKS 110235Z AUTO 17003G10KT 10SM OVC050 M00/M10 A3052 RMK AO2
KEKS 110215Z AUTO 14011KT 10SM OVC050 01/M10 A3051 RMK AO2
KEKS 110155Z AUTO 17009G15KT 10SM OVC050 00/M09 A3051 RMK AO2
KEKS 110135Z AUTO 18013KT 10SM OVC055 00/M09 A3051 RMK AO2
KEKS 110115Z AUTO 17011KT 10SM BKN055 00/M09 A3051 RMK AO2
KEKS 110055Z AUTO 18015KT 10SM SCT050 00/M08 A3051 RMK AO2
KEKS 110035Z AUTO 17011KT 10SM CLR 01/M08 A3051 RMK AO2
KEKS 110015Z AUTO 17007KT 10SM CLR 00/M08 A3051 RMK AO2
KEKS 102355Z AUTO 00000KT 10SM CLR 02/M08 A3050 RMK AO2
KEKS 102335Z AUTO 15005KT 10SM CLR 02/M08 A3051 RMK AO2
KEKS 102315Z AUTO VRB03G10KT 10SM CLR 01/M07 A3052 RMK AO2
KEKS 102255Z AUTO 18009G18KT 10SM CLR 03/M07 A3052 RMK AO2
KEKS 102235Z AUTO 29010KT 10SM CLR 01/M06 A3052 RMK AO2
KEKS 102215Z AUTO 17006KT 10SM CLR 02/M04 A3051 RMK AO2
KEKS 102155Z AUTO 19006KT 10SM CLR 03/M04 A3051 RMK AO2
KEKS 102135Z AUTO 18009KT 10SM CLR 02/M05 A3051 RMK AO2
KEKS 102115Z AUTO 20007KT 10SM CLR 03/M05 A3052 RMK AO2
KEKS 102055Z AUTO 19005KT 10SM CLR 03/M05 A3053 RMK AO2
KEKS 102035Z AUTO 19006KT 10SM CLR 03/M04 A3054 RMK AO2
KEKS 102015Z AUTO 19009KT 10SM CLR 03/M05 A3054 RMK AO2
KEKS 101955Z AUTO 20007KT 10SM CLR 03/M05 A3055 RMK AO2
KEKS 101935Z AUTO 18009KT 10SM CLR 03/M05 A3055 RMK AO2
KEKS 101915Z AUTO 19008G13KT 10SM CLR 03/M06 A3055 RMK AO2
KEKS 101855Z AUTO 18009KT 10SM CLR 02/M06 A3056 RMK AO2
KEKS 101835Z AUTO 19013KT 10SM CLR 02/M07 A3056 RMK AO2
KEKS 101815Z AUTO 17008KT 10SM CLR 01/M08 A3057 RMK AO2
KEKS 101755Z AUTO 17008KT 10SM CLR 01/M08 A3057 RMK AO2
KEKS 101735Z AUTO 20012KT 10SM CLR M00/M09 A3057 RMK AO2
KEKS 101715Z AUTO 17009KT 10SM CLR M02/M09 A3056 RMK AO2
KEKS 101655Z AUTO 19008KT 10SM CLR M00/M10 A3057 RMK AO2
KEKS 101635Z AUTO 00000KT 10SM CLR M01/M11 A3057 RMK AO2
KEKS 101615Z AUTO VRB04KT 10SM CLR M04/M11 A3057 RMK AO2
KEKS 101555Z AUTO 17004KT 10SM CLR M06/M13 A3057 RMK AO2
KEKS 101535Z AUTO 00000KT 10SM CLR M07/M13 A3057 RMK AO2
KEKS 101515Z AUTO 19004KT 10SM CLR M06/M13 A3057 RMK AO2
KEKS 101455Z AUTO 19006KT 10SM CLR M05/M12 A3057 RMK AO2
KEKS 101435Z AUTO 17010G15KT 10SM CLR M05/M11 A3058 RMK AO2
KEKS 101415Z AUTO 18005KT 10SM CLR M07/M13 A3058 RMK AO2
KEKS 101355Z AUTO 00000KT 10SM CLR M09/M13 A3057 RMK AO2
KEKS 101335Z AUTO 22005KT 10SM CLR M07/M13 A3057 RMK AO2
KEKS 101315Z AUTO 00000KT 10SM CLR M08/M13 A3056 RMK AO2
KEKS 101255Z AUTO 16011KT 10SM CLR M06/M12 A3056 RMK AO2
KEKS 101235Z AUTO 00000KT 10SM CLR M07/M13 A3056 RMK AO2
KEKS 101215Z AUTO 15006KT 10SM CLR M07/M13 A3056 RMK AO2
KEKS 101155Z AUTO 17008KT 10SM CLR M06/M13 A3056 RMK AO2
KEKS 101135Z AUTO 18004KT 10SM CLR M07/M12 A3056 RMK AO2
KEKS 101115Z AUTO 00000KT 10SM CLR M09/M13 A3057 RMK AO2
KEKS 101055Z AUTO 00000KT 10SM CLR M07/M12 A3058 RMK AO2
KEKS 101035Z AUTO 00000KT 10SM CLR M08/M13 A3059 RMK AO2
KEKS 101015Z AUTO 15005KT 10SM CLR M07/M12 A3059 RMK AO2
KEKS 100955Z AUTO 00000KT 10SM CLR M07/M12 A3059 RMK AO2
KEKS 100935Z AUTO 04004KT 10SM FEW055 M08/M12 A3059 RMK AO2
KEKS 100915Z AUTO 12004KT 10SM SCT055 M05/M12 A3059 RMK AO2
KEKS 100855Z AUTO 00000KT 10SM CLR M07/M12 A3058 RMK AO2
KEKS 100835Z AUTO 18009KT 10SM CLR M05/M11 A3058 RMK AO2
KEKS 100815Z AUTO 00000KT 10SM CLR M08/M13 A3058 RMK AO2
KEKS 100755Z AUTO VRB04KT 10SM CLR M05/M11 A3058 RMK AO2
KEKS 100735Z AUTO 13004KT 10SM CLR M07/M12 A3059 RMK AO2
KEKS 100715Z AUTO 16010KT 10SM CLR M04/M11 A3058 RMK AO2
KEKS 100655Z AUTO 14008KT 10SM CLR M04/M11 A3058 RMK AO2
KEKS 100635Z AUTO 00000KT 10SM CLR M07/M12 A3058 RMK AO2
KEKS 100615Z AUTO 12005KT 10SM CLR M05/M12 A3057 RMK AO2
KEKS 100555Z AUTO VRB06KT 10SM CLR M04/M11 A3057 RMK AO2
KEKS 100535Z AUTO 15008G16KT 10SM CLR M02/M11 A3056 RMK AO2
KEKS 100515Z AUTO 17006KT 10SM CLR M02/M11 A3056 RMK AO2
KEKS 100455Z AUTO 06005KT 10SM CLR M05/M12 A3056 RMK AO2
KEKS 100435Z AUTO 17009KT 10SM CLR M02/M11 A3055 RMK AO2
KEKS 100415Z AUTO 17009KT 10SM CLR M01/M10 A3055 RMK AO2
KEKS 100355Z AUTO 16009KT 10SM CLR M02/M10 A3056 RMK AO2
KEKS 100335Z AUTO 17009KT 10SM CLR M02/M10 A3056 RMK AO2
KEKS 100315Z AUTO 15008G15KT 10SM CLR M01/M11 A3055 RMK AO2
KEKS 100255Z AUTO 16005KT 10SM CLR M04/M11 A3055 RMK AO2
KEKS 100235Z AUTO 17009KT 10SM CLR M02/M09 A3055 RMK AO2
KEKS 100215Z AUTO 14007G13KT 10SM CLR M02/M09 A3054 RMK AO2
KEKS 100155Z AUTO 18005G11KT 10SM CLR M01/M09 A3054 RMK AO2
KEKS 100135Z AUTO 15009KT 10SM CLR M01/M09 A3053 RMK AO2
KEKS 100115Z AUTO 16009G17KT 10SM CLR M00/M09 A3053 RMK AO2
KEKS 100055Z AUTO 18012G18KT 10SM CLR M00/M08 A3053 RMK AO2
KEKS 100035Z AUTO 17015KT 10SM CLR M01/M08 A3053 RMK AO2
KEKS 100015Z AUTO 16006KT 10SM CLR M00/M07 A3053 RMK AO2
KEKS 092355Z AUTO 16008KT 10SM CLR 01/M07 A3053 RMK AO2
KEKS 092335Z AUTO 15011KT 10SM CLR 02/M07 A3052 RMK AO2
KEKS 092315Z AUTO 17007KT 10SM CLR 01/M06 A3052 RMK AO2
KEKS 092255Z AUTO 17013KT 10SM CLR 02/M06 A3051 RMK AO2
KEKS 092235Z AUTO 17009G15KT 10SM CLR 02/M06 A3051 RMK AO2
KEKS 092215Z AUTO 17010G15KT 10SM CLR 02/M06 A3052 RMK AO2
KEKS 092155Z AUTO 18013KT 10SM CLR 03/M06 A3051 RMK AO2
KEKS 092135Z AUTO 18015KT 10SM CLR 03/M07 A3051 RMK AO2
KEKS 092115Z AUTO 19013KT 10SM CLR 04/M06 A3051 RMK AO2
KEKS 092055Z AUTO 18012KT 10SM CLR 03/M05 A3051 RMK AO2
KEKS 092035Z AUTO 18013KT 10SM CLR 03/M05 A3051 RMK AO2
KEKS 092015Z AUTO 19008KT 10SM CLR 04/M05 A3051 RMK AO2
KEKS 091955Z AUTO 17010KT 10SM CLR 04/M07 A3052 RMK AO2
KEKS 091935Z AUTO 18006KT 10SM CLR 02/M06 A3053 RMK AO2
KEKS 091915Z AUTO 18009KT 10SM CLR 02/M06 A3054 RMK AO2
KEKS 091855Z AUTO 17009KT 10SM CLR 01/M05 A3054 RMK AO2
KEKS 091835Z AUTO 18010KT 10SM CLR M00/M07 A3055 RMK AO2
KEKS 091815Z AUTO 18008KT 10SM CLR 00/M07 A3056 RMK AO2
KEKS 091755Z AUTO 18009KT 10SM CLR 01/M08 A3056 RMK AO2